sensor_id;sensor_type;location;lat;lon;timestamp;pressure;altitude;pressure_sealevel;temperature
49593;BMP280;35499;51.482;4.264;2023-05-24T00:00:31;102563.88;;;9.74
49593;BMP280;35499;51.482;4.264;2023-05-24T00:02:56;102556.16;;;9.71
49593;BMP280;35499;51.482;4.264;2023-05-24T00:05:22;102556.97;;;9.70
49593;BMP280;35499;51.482;4.264;2023-05-24T00:07:47;102555.25;;;9.69
49593;BMP280;35499;51.482;4.264;2023-05-24T00:10:13;102553.53;;;9.68
49593;BMP280;35499;51.482;4.264;2023-05-24T00:12:38;102553.50;;;9.66
49593;BMP280;35499;51.482;4.264;2023-05-24T00:15:03;102551.75;;;9.64
49593;BMP280;35499;51.482;4.264;2023-05-24T00:17:29;102538.06;;;9.64
49593;BMP280;35499;51.482;4.264;2023-05-24T00:19:54;102544.03;;;9.63
49593;BMP280;35499;51.482;4.264;2023-05-24T00:22:19;102527.72;;;9.59
49593;BMP280;35499;51.482;4.264;2023-05-24T00:24:48;102537.94;;;9.56
49593;BMP280;35499;51.482;4.264;2023-05-24T00:27:13;102536.97;;;9.51
49593;BMP280;35499;51.482;4.264;2023-05-24T00:29:39;102536.13;;;9.49
49593;BMP280;35499;51.482;4.264;2023-05-24T00:32:04;102541.16;;;9.47
49593;BMP280;35499;51.482;4.264;2023-05-24T00:34:30;102542.03;;;9.46
49593;BMP280;35499;51.482;4.264;2023-05-24T00:36:55;102542.78;;;9.42
49593;BMP280;35499;51.482;4.264;2023-05-24T00:39:21;102541.03;;;9.36
49593;BMP280;35499;51.482;4.264;2023-05-24T00:41:46;102534.94;;;9.33
49593;BMP280;35499;51.482;4.264;2023-05-24T00:44:12;102528.88;;;9.28
49593;BMP280;35499;51.482;4.264;2023-05-24T00:46:37;102530.53;;;9.25
49593;BMP280;35499;51.482;4.264;2023-05-24T00:49:03;102529.59;;;9.20
49593;BMP280;35499;51.482;4.264;2023-05-24T00:51:28;102521.00;;;9.16
49593;BMP280;35499;51.482;4.264;2023-05-24T00:53:55;102522.63;;;9.13
49593;BMP280;35499;51.482;4.264;2023-05-24T00:56:21;102524.28;;;9.10
49593;BMP280;35499;51.482;4.264;2023-05-24T00:58:47;102525.06;;;9.06
49593;BMP280;35499;51.482;4.264;2023-05-24T01:01:14;102524.13;;;9.01
49593;BMP280;35499;51.482;4.264;2023-05-24T01:03:39;102513.78;;;8.96
49593;BMP280;35499;51.482;4.264;2023-05-24T01:06:05;102508.53;;;8.92
49593;BMP280;35499;51.482;4.264;2023-05-24T01:10:58;102511.03;;;8.86
49593;BMP280;35499;51.482;4.264;2023-05-24T01:18:19;102507.41;;;8.77
49593;BMP280;35499;51.482;4.264;2023-05-24T01:20:51;102502.19;;;8.73
49593;BMP280;35499;51.482;4.264;2023-05-24T01:26:19;102498.66;;;8.66
49593;BMP280;35499;51.482;4.264;2023-05-24T01:28:52;102498.59;;;8.63
49593;BMP280;35499;51.482;4.264;2023-05-24T01:31:18;102504.50;;;8.59
49593;BMP280;35499;51.482;4.264;2023-05-24T01:33:43;102509.56;;;8.57
49593;BMP280;35499;51.482;4.264;2023-05-24T01:36:09;102509.50;;;8.54
49593;BMP280;35499;51.482;4.264;2023-05-24T01:38:34;102506.06;;;8.52
49593;BMP280;35499;51.482;4.264;2023-05-24T01:41:01;102516.25;;;8.50
49593;BMP280;35499;51.482;4.264;2023-05-24T01:43:33;102517.91;;;8.48
49593;BMP280;35499;51.482;4.264;2023-05-24T01:48:30;102524.59;;;8.42
49593;BMP280;35499;51.482;4.264;2023-05-24T01:53:21;102520.16;;;8.34
49593;BMP280;35499;51.482;4.264;2023-05-24T01:55:47;102517.56;;;8.32
49593;BMP280;35499;51.482;4.264;2023-05-24T01:58:13;102512.44;;;8.31
49593;BMP280;35499;51.482;4.264;2023-05-24T02:00:40;102504.75;;;8.31
49593;BMP280;35499;51.482;4.264;2023-05-24T02:03:05;102507.31;;;8.32
49593;BMP280;35499;51.482;4.264;2023-05-24T02:05:31;102507.31;;;8.32
49593;BMP280;35499;51.482;4.264;2023-05-24T02:07:56;102514.97;;;8.31
49593;BMP280;35499;51.482;4.264;2023-05-24T02:10:22;102517.44;;;8.26
49593;BMP280;35499;51.482;4.264;2023-05-24T02:12:47;102523.34;;;8.24
49593;BMP280;35499;51.482;4.264;2023-05-24T02:15:12;102511.34;;;8.20
49593;BMP280;35499;51.482;4.264;2023-05-24T02:17:38;102516.38;;;8.17
49593;BMP280;35499;51.482;4.264;2023-05-24T02:20:04;102512.94;;;8.15
49593;BMP280;35499;51.482;4.264;2023-05-24T02:22:30;102524.91;;;8.16
49593;BMP280;35499;51.482;4.264;2023-05-24T02:24:56;102518.03;;;8.15
49593;BMP280;35499;51.482;4.264;2023-05-24T02:27:21;102527.38;;;8.13
49593;BMP280;35499;51.482;4.264;2023-05-24T02:29:46;102522.25;;;8.12
49593;BMP280;35499;51.482;4.264;2023-05-24T02:32:12;102523.16;;;8.15
49593;BMP280;35499;51.482;4.264;2023-05-24T02:34:37;102525.78;;;8.17
49593;BMP280;35499;51.482;4.264;2023-05-24T02:37:02;102518.97;;;8.19
49593;BMP280;35499;51.482;4.264;2023-05-24T02:39:28;102517.31;;;8.22
49593;BMP280;35499;51.482;4.264;2023-05-24T02:41:53;102515.72;;;8.27
49593;BMP280;35499;51.482;4.264;2023-05-24T02:44:20;102513.38;;;8.36
49593;BMP280;35499;51.482;4.264;2023-05-24T02:46:45;102511.84;;;8.43
49593;BMP280;35499;51.482;4.264;2023-05-24T02:49:10;102511.06;;;8.47
49593;BMP280;35499;51.482;4.264;2023-05-24T02:51:36;102514.47;;;8.48
49593;BMP280;35499;51.482;4.264;2023-05-24T02:54:01;102517.94;;;8.50
49593;BMP280;35499;51.482;4.264;2023-05-24T02:56:27;102509.44;;;8.51
49593;BMP280;35499;51.482;4.264;2023-05-24T02:58:53;102508.63;;;8.53
49593;BMP280;35499;51.482;4.264;2023-05-24T03:01:19;102515.47;;;8.54
49593;BMP280;35499;51.482;4.264;2023-05-24T03:03:45;102514.69;;;8.57
49593;BMP280;35499;51.482;4.264;2023-05-24T03:06:10;102517.34;;;8.61
49593;BMP280;35499;51.482;4.264;2023-05-24T03:08:37;102518.22;;;8.63
49593;BMP280;35499;51.482;4.264;2023-05-24T03:11:03;102515.66;;;8.63
49593;BMP280;35499;51.482;4.264;2023-05-24T03:13:28;102503.66;;;8.62
49593;BMP280;35499;51.482;4.264;2023-05-24T03:15:53;102503.66;;;8.62
49593;BMP280;35499;51.482;4.264;2023-05-24T03:18:18;102503.66;;;8.62
49593;BMP280;35499;51.482;4.264;2023-05-24T03:20:43;102518.22;;;8.61
49593;BMP280;35499;51.482;4.264;2023-05-24T03:23:09;102508.78;;;8.62
49593;BMP280;35499;51.482;4.264;2023-05-24T03:25:34;102497.81;;;8.66
49593;BMP280;35499;51.482;4.264;2023-05-24T03:27:59;102504.69;;;8.70
49593;BMP280;35499;51.482;4.264;2023-05-24T03:30:26;102497.06;;;8.73
49593;BMP280;35499;51.482;4.264;2023-05-24T03:32:51;102507.34;;;8.74
49593;BMP280;35499;51.482;4.264;2023-05-24T03:35:16;102510.81;;;8.77
49593;BMP280;35499;51.482;4.264;2023-05-24T03:37:42;102496.34;;;8.79
49593;BMP280;35499;51.482;4.264;2023-05-24T03:40:07;102490.41;;;8.80
49593;BMP280;35499;51.482;4.264;2023-05-24T03:42:32;102490.41;;;8.80
49593;BMP280;35499;51.482;4.264;2023-05-24T03:44:58;102501.47;;;8.79
49593;BMP280;35499;51.482;4.264;2023-05-24T03:47:23;102496.34;;;8.79
49593;BMP280;35499;51.482;4.264;2023-05-24T03:49:48;102488.69;;;8.79
49593;BMP280;35499;51.482;4.264;2023-05-24T03:52:13;102489.56;;;8.81
49593;BMP280;35499;51.482;4.264;2023-05-24T03:54:38;102491.31;;;8.84
49593;BMP280;35499;51.482;4.264;2023-05-24T03:57:04;102479.38;;;8.84
49593;BMP280;35499;51.482;4.264;2023-05-24T03:59:29;102475.94;;;8.84
49593;BMP280;35499;51.482;4.264;2023-05-24T04:01:55;102477.66;;;8.83
49593;BMP280;35499;51.482;4.264;2023-05-24T04:04:20;102476.81;;;8.84
49593;BMP280;35499;51.482;4.264;2023-05-24T04:06:45;102481.16;;;8.88
49593;BMP280;35499;51.482;4.264;2023-05-24T04:09:11;102499.25;;;8.95
49593;BMP280;35499;51.482;4.264;2023-05-24T04:11:37;102492.53;;;9.03
49593;BMP280;35499;51.482;4.264;2023-05-24T04:14:02;102489.34;;;9.14
49593;BMP280;35499;51.482;4.264;2023-05-24T04:16:27;102498.13;;;9.28
49593;BMP280;35499;51.482;4.264;2023-05-24T04:18:53;102499.19;;;9.40
49593;BMP280;35499;51.482;4.264;2023-05-24T04:21:18;102494.28;;;9.53
49593;BMP280;35499;51.482;4.264;2023-05-24T04:23:44;102496.22;;;9.67
49593;BMP280;35499;51.482;4.264;2023-05-24T04:26:09;102506.75;;;9.81
49593;BMP280;35499;51.482;4.264;2023-05-24T04:28:35;102506.06;;;9.93
49593;BMP280;35499;51.482;4.264;2023-05-24T04:31:00;102497.72;;;10.07
49593;BMP280;35499;51.482;4.264;2023-05-24T04:33:26;102506.47;;;10.19
49593;BMP280;35499;51.482;4.264;2023-05-24T04:35:51;102499.75;;;10.30
49593;BMP280;35499;51.482;4.264;2023-05-24T04:38:17;102502.47;;;10.40
49593;BMP280;35499;51.482;4.264;2023-05-24T04:40:43;102491.44;;;10.52
49593;BMP280;35499;51.482;4.264;2023-05-24T04:43:09;102495.06;;;10.67
49593;BMP280;35499;51.482;4.264;2023-05-24T04:45:34;102488.38;;;10.82
49593;BMP280;35499;51.482;4.264;2023-05-24T04:47:59;102490.28;;;10.97
49593;BMP280;35499;51.482;4.264;2023-05-24T04:50:25;102475.84;;;11.09
49593;BMP280;35499;51.482;4.264;2023-05-24T04:52:50;102473.34;;;11.18
49593;BMP280;35499;51.482;4.264;2023-05-24T04:55:16;102477.69;;;11.26
49593;BMP280;35499;51.482;4.264;2023-05-24T04:57:41;102476.94;;;11.33
49593;BMP280;35499;51.482;4.264;2023-05-24T05:00:06;102483.03;;;11.43
49593;BMP280;35499;51.482;4.264;2023-05-24T05:02:32;102474.56;;;11.55
49593;BMP280;35499;51.482;4.264;2023-05-24T05:04:57;102476.38;;;11.68
49593;BMP280;35499;51.482;4.264;2023-05-24T05:07:22;102483.41;;;11.89
49593;BMP280;35499;51.482;4.264;2023-05-24T05:09:47;102479.22;;;12.07
49593;BMP280;35499;51.482;4.264;2023-05-24T05:12:13;102461.28;;;12.23
49593;BMP280;35499;51.482;4.264;2023-05-24T05:14:38;102466.53;;;12.45
49593;BMP280;35499;51.482;4.264;2023-05-24T05:17:03;102462.34;;;12.65
49593;BMP280;35499;51.482;4.264;2023-05-24T05:19:28;102466.69;;;12.83
49593;BMP280;35499;51.482;4.264;2023-05-24T05:21:53;102470.16;;;13.00
49593;BMP280;35499;51.482;4.264;2023-05-24T05:24:19;102476.19;;;13.18
49593;BMP280;35499;51.482;4.264;2023-05-24T05:26:45;102475.34;;;13.29
49593;BMP280;35499;51.482;4.264;2023-05-24T05:29:10;102477.91;;;13.41
49593;BMP280;35499;51.482;4.264;2023-05-24T05:31:35;102481.34;;;13.56
49593;BMP280;35499;51.482;4.264;2023-05-24T05:34:00;102481.38;;;13.75
49593;BMP280;35499;51.482;4.264;2023-05-24T05:36:26;102470.19;;;13.95
49593;BMP280;35499;51.482;4.264;2023-05-24T05:38:51;102467.53;;;14.19
49593;BMP280;35499;51.482;4.264;2023-05-24T05:41:16;102469.16;;;14.41
49593;BMP280;35499;51.482;4.264;2023-05-24T05:43:41;102467.34;;;14.60
49593;BMP280;35499;51.482;4.264;2023-05-24T05:46:06;102467.22;;;14.81
49593;BMP280;35499;51.482;4.264;2023-05-24T05:48:32;102470.66;;;14.91
49593;BMP280;35499;51.482;4.264;2023-05-24T05:50:57;102472.31;;;15.01
49593;BMP280;35499;51.482;4.264;2023-05-24T05:53:22;102474.81;;;15.19
49593;BMP280;35499;51.482;4.264;2023-05-24T05:55:49;102471.13;;;15.46
49593;BMP280;35499;51.482;4.264;2023-05-24T05:58:14;102470.03;;;15.73
49593;BMP280;35499;51.482;4.264;2023-05-24T06:00:39;102472.41;;;15.92
49593;BMP280;35499;51.482;4.264;2023-05-24T06:03:04;102469.81;;;15.93
49593;BMP280;35499;51.482;4.264;2023-05-24T06:05:29;102468.19;;;15.84
49593;BMP280;35499;51.482;4.264;2023-05-24T06:07:55;102474.28;;;15.78
49593;BMP280;35499;51.482;4.264;2023-05-24T06:10:20;102467.22;;;15.93
49593;BMP280;35499;51.482;4.264;2023-05-24T06:12:45;102467.22;;;15.95
49593;BMP280;35499;51.482;4.264;2023-05-24T06:15:10;102468.94;;;15.97
49593;BMP280;35499;51.482;4.264;2023-05-24T06:17:36;102463.69;;;16.02
49593;BMP280;35499;51.482;4.264;2023-05-24T06:20:04;102463.66;;;16.08
49593;BMP280;35499;51.482;4.264;2023-05-24T06:22:39;102470.50;;;16.12
49593;BMP280;35499;51.482;4.264;2023-05-24T06:25:06;102476.56;;;16.09
49593;BMP280;35499;51.482;4.264;2023-05-24T06:27:32;102476.63;;;16.06
49593;BMP280;35499;51.482;4.264;2023-05-24T06:29:57;102487.91;;;16.01
49593;BMP280;35499;51.482;4.264;2023-05-24T06:32:22;102481.00;;;16.00
49593;BMP280;35499;51.482;4.264;2023-05-24T06:34:47;102484.41;;;16.05
49593;BMP280;35499;51.482;4.264;2023-05-24T06:37:12;102478.41;;;16.01
49593;BMP280;35499;51.482;4.264;2023-05-24T06:39:39;102495.69;;;16.01
49593;BMP280;35499;51.482;4.264;2023-05-24T06:42:05;102488.66;;;16.10
49593;BMP280;35499;51.482;4.264;2023-05-24T06:44:30;102490.28;;;16.20
49593;BMP280;35499;51.482;4.264;2023-05-24T06:46:58;102479.56;;;16.49
49593;BMP280;35499;51.482;4.264;2023-05-24T06:49:23;102480.81;;;16.85
49593;BMP280;35499;51.482;4.264;2023-05-24T06:51:49;102481.16;;;17.23
49593;BMP280;35499;51.482;4.264;2023-05-24T06:54:14;102477.81;;;17.66
49593;BMP280;35499;51.482;4.264;2023-05-24T06:56:39;102474.75;;;17.93
49593;BMP280;35499;51.482;4.264;2023-05-24T06:59:04;102476.84;;;18.18
49593;BMP280;35499;51.482;4.264;2023-05-24T07:01:30;102466.63;;;18.52
49593;BMP280;35499;51.482;4.264;2023-05-24T07:03:56;102463.34;;;18.83
49593;BMP280;35499;51.482;4.264;2023-05-24T07:06:21;102461.44;;;18.92
49593;BMP280;35499;51.482;4.264;2023-05-24T07:08:47;102456.69;;;18.72
49593;BMP280;35499;51.482;4.264;2023-05-24T07:11:12;102460.47;;;18.56
49593;BMP280;35499;51.482;4.264;2023-05-24T07:13:37;102457.16;;;18.48
49593;BMP280;35499;51.482;4.264;2023-05-24T07:16:02;102462.44;;;18.45
49593;BMP280;35499;51.482;4.264;2023-05-24T07:18:28;102455.47;;;18.47
49593;BMP280;35499;51.482;4.264;2023-05-24T07:20:53;102456.28;;;18.49
49593;BMP280;35499;51.482;4.264;2023-05-24T07:23:19;102453.53;;;18.57
49593;BMP280;35499;51.482;4.264;2023-05-24T07:25:44;102463.53;;;18.77
49593;BMP280;35499;51.482;4.264;2023-05-24T07:28:09;102463.22;;;18.89
49593;BMP280;35499;51.482;4.264;2023-05-24T07:30:35;102464.38;;;19.13
49593;BMP280;35499;51.482;4.264;2023-05-24T07:33:02;102462.78;;;19.43
49593;BMP280;35499;51.482;4.264;2023-05-24T07:35:27;102462.28;;;19.64
49593;BMP280;35499;51.482;4.264;2023-05-24T07:37:53;102459.16;;;19.83
49593;BMP280;35499;51.482;4.264;2023-05-24T07:40:18;102453.56;;;19.97
49593;BMP280;35499;51.482;4.264;2023-05-24T07:42:44;102464.78;;;19.99
49593;BMP280;35499;51.482;4.264;2023-05-24T07:45:11;102463.59;;;20.12
49593;BMP280;35499;51.482;4.264;2023-05-24T07:47:36;102467.59;;;20.23
49593;BMP280;35499;51.482;4.264;2023-05-24T07:50:01;102467.44;;;20.29
49593;BMP280;35499;51.482;4.264;2023-05-24T07:52:27;102464.81;;;20.29
49593;BMP280;35499;51.482;4.264;2023-05-24T07:54:52;102465.84;;;20.24
49593;BMP280;35499;51.482;4.264;2023-05-24T07:57:18;102468.56;;;20.21
49593;BMP280;35499;51.482;4.264;2023-05-24T07:59:43;102472.78;;;20.25
49593;BMP280;35499;51.482;4.264;2023-05-24T08:02:09;102473.44;;;20.32
49593;BMP280;35499;51.482;4.264;2023-05-24T08:04:35;102469.94;;;20.33
49593;BMP280;35499;51.482;4.264;2023-05-24T08:07:01;102465.63;;;20.32
49593;BMP280;35499;51.482;4.264;2023-05-24T08:09:27;102464.53;;;20.41
49593;BMP280;35499;51.482;4.264;2023-05-24T08:11:53;102463.50;;;20.46
49593;BMP280;35499;51.482;4.264;2023-05-24T08:14:19;102461.75;;;20.46
49593;BMP280;35499;51.482;4.264;2023-05-24T08:16:44;102462.91;;;20.65
49593;BMP280;35499;51.482;4.264;2023-05-24T08:19:09;102461.25;;;20.91
49593;BMP280;35499;51.482;4.264;2023-05-24T08:21:34;102459.94;;;21.32
49593;BMP280;35499;51.482;4.264;2023-05-24T08:24:01;102459.19;;;22.03
49593;BMP280;35499;51.482;4.264;2023-05-24T08:26:26;102455.97;;;22.87
49593;BMP280;35499;51.482;4.264;2023-05-24T08:28:51;102438.81;;;23.64
49593;BMP280;35499;51.482;4.264;2023-05-24T08:31:17;102433.28;;;24.28
49593;BMP280;35499;51.482;4.264;2023-05-24T08:33:42;102443.28;;;25.12
49593;BMP280;35499;51.482;4.264;2023-05-24T08:36:07;102443.56;;;25.75
49593;BMP280;35499;51.482;4.264;2023-05-24T08:38:32;102445.56;;;26.20
49593;BMP280;35499;51.482;4.264;2023-05-24T08:40:58;102439.16;;;26.40
49593;BMP280;35499;51.482;4.264;2023-05-24T08:43:23;102434.66;;;26.59
49593;BMP280;35499;51.482;4.264;2023-05-24T08:45:50;102417.97;;;26.74
49593;BMP280;35499;51.482;4.264;2023-05-24T08:48:16;102424.78;;;26.77
49593;BMP280;35499;51.482;4.264;2023-05-24T08:50:42;102424.19;;;26.88
49593;BMP280;35499;51.482;4.264;2023-05-24T08:53:09;102418.84;;;26.89
49593;BMP280;35499;51.482;4.264;2023-05-24T08:55:35;102423.91;;;26.62
49593;BMP280;35499;51.482;4.264;2023-05-24T08:58:00;102425.72;;;26.30
49593;BMP280;35499;51.482;4.264;2023-05-24T09:04:31;102425.16;;;25.75
49593;BMP280;35499;51.482;4.264;2023-05-24T09:06:57;102426.53;;;25.49
49593;BMP280;35499;51.482;4.264;2023-05-24T09:09:23;102431.09;;;25.62
49593;BMP280;35499;51.482;4.264;2023-05-24T09:11:51;102426.19;;;25.71
49593;BMP280;35499;51.482;4.264;2023-05-24T09:14:17;102433.66;;;25.80
49593;BMP280;35499;51.482;4.264;2023-05-24T09:16:43;102421.28;;;25.99
49593;BMP280;35499;51.482;4.264;2023-05-24T09:19:08;102427.63;;;25.95
49593;BMP280;35499;51.482;4.264;2023-05-24T09:21:33;102433.97;;;25.91
49593;BMP280;35499;51.482;4.264;2023-05-24T09:23:59;102433.78;;;25.77
49593;BMP280;35499;51.482;4.264;2023-05-24T09:26:26;102433.19;;;25.72
49593;BMP280;35499;51.482;4.264;2023-05-24T09:28:53;102442.84;;;25.72
49593;BMP280;35499;51.482;4.264;2023-05-24T09:31:18;102426.81;;;25.76
49593;BMP280;35499;51.482;4.264;2023-05-24T09:33:55;102428.06;;;26.19
49593;BMP280;35499;51.482;4.264;2023-05-24T09:36:20;102425.84;;;26.43
49593;BMP280;35499;51.482;4.264;2023-05-24T09:38:46;102425.38;;;26.36
49593;BMP280;35499;51.482;4.264;2023-05-24T09:41:12;102421.56;;;26.09
49593;BMP280;35499;51.482;4.264;2023-05-24T09:43:46;102423.84;;;25.84
49593;BMP280;35499;51.482;4.264;2023-05-24T09:46:15;102431.31;;;26.07
49593;BMP280;35499;51.482;4.264;2023-05-24T09:48:40;102418.91;;;26.88
49593;BMP280;35499;51.482;4.264;2023-05-24T09:51:19;102404.81;;;27.47
49593;BMP280;35499;51.482;4.264;2023-05-24T09:53:46;102399.19;;;27.53
49593;BMP280;35499;51.482;4.264;2023-05-24T09:56:11;102408.63;;;26.98
49593;BMP280;35499;51.482;4.264;2023-05-24T09:58:37;102413.22;;;26.65
49593;BMP280;35499;51.482;4.264;2023-05-24T10:01:07;102405.72;;;26.57
49593;BMP280;35499;51.482;4.264;2023-05-24T10:03:35;102400.84;;;26.65
49593;BMP280;35499;51.482;4.264;2023-05-24T10:06:02;102398.59;;;26.75
49593;BMP280;35499;51.482;4.264;2023-05-24T10:08:30;102400.03;;;26.80
49593;BMP280;35499;51.482;4.264;2023-05-24T10:10:56;102403.09;;;26.88
49593;BMP280;35499;51.482;4.264;2023-05-24T10:13:22;102387.69;;;26.95
49593;BMP280;35499;51.482;4.264;2023-05-24T10:15:47;102387.09;;;27.06
49593;BMP280;35499;51.482;4.264;2023-05-24T10:18:12;102384.28;;;27.24
49593;BMP280;35499;51.482;4.264;2023-05-24T10:20:38;102378.63;;;27.87
49593;BMP280;35499;51.482;4.264;2023-05-24T10:23:06;102366.81;;;28.60
49593;BMP280;35499;51.482;4.264;2023-05-24T10:25:33;102364.63;;;29.58
49593;BMP280;35499;51.482;4.264;2023-05-24T10:28:03;102364.53;;;30.20
49593;BMP280;35499;51.482;4.264;2023-05-24T10:30:34;102362.75;;;30.33
49593;BMP280;35499;51.482;4.264;2023-05-24T10:33:02;102358.84;;;30.14
49593;BMP280;35499;51.482;4.264;2023-05-24T10:35:28;102358.50;;;30.42
49593;BMP280;35499;51.482;4.264;2023-05-24T10:37:54;102366.53;;;30.29
49593;BMP280;35499;51.482;4.264;2023-05-24T10:40:22;102362.84;;;30.19
49593;BMP280;35499;51.482;4.264;2023-05-24T10:42:50;102367.00;;;30.35
49593;BMP280;35499;51.482;4.264;2023-05-24T10:47:47;102361.31;;;31.45
49593;BMP280;35499;51.482;4.264;2023-05-24T10:50:16;102361.16;;;31.80
49593;BMP280;35499;51.482;4.264;2023-05-24T10:52:41;102356.78;;;31.57
49593;BMP280;35499;51.482;4.264;2023-05-24T10:55:08;102358.34;;;31.03
49593;BMP280;35499;51.482;4.264;2023-05-24T10:57:33;102362.13;;;30.41
49593;BMP280;35499;51.482;4.264;2023-05-24T11:02:42;102367.78;;;29.25
49593;BMP280;35499;51.482;4.264;2023-05-24T11:05:08;102353.34;;;29.42
49593;BMP280;35499;51.482;4.264;2023-05-24T11:07:33;102355.72;;;29.59
49593;BMP280;35499;51.482;4.264;2023-05-24T11:10:08;102349.44;;;29.60
49593;BMP280;35499;51.482;4.264;2023-05-24T11:12:33;102353.53;;;29.39
49593;BMP280;35499;51.482;4.264;2023-05-24T11:15:02;102361.81;;;28.83
49593;BMP280;35499;51.482;4.264;2023-05-24T11:17:28;102366.50;;;28.25
49593;BMP280;35499;51.482;4.264;2023-05-24T11:19:53;102369.75;;;27.88
49593;BMP280;35499;51.482;4.264;2023-05-24T11:22:19;102358.41;;;27.72
49593;BMP280;35499;51.482;4.264;2023-05-24T11:24:45;102367.78;;;27.91
49593;BMP280;35499;51.482;4.264;2023-05-24T11:27:11;102359.72;;;28.21
49593;BMP280;35499;51.482;4.264;2023-05-24T11:29:43;102359.69;;;28.08
49593;BMP280;35499;51.482;4.264;2023-05-24T11:32:09;102364.00;;;27.82
49593;BMP280;35499;51.482;4.264;2023-05-24T11:34:34;102374.19;;;27.87
49593;BMP280;35499;51.482;4.264;2023-05-24T11:37:00;102363.34;;;27.78
49593;BMP280;35499;51.482;4.264;2023-05-24T11:39:32;102359.56;;;27.68
49593;BMP280;35499;51.482;4.264;2023-05-24T11:41:58;102364.91;;;27.67
49593;BMP280;35499;51.482;4.264;2023-05-24T11:44:24;102363.41;;;27.34
49593;BMP280;35499;51.482;4.264;2023-05-24T11:46:55;102366.44;;;27.13
49593;BMP280;35499;51.482;4.264;2023-05-24T11:49:21;102379.94;;;26.77
49593;BMP280;35499;51.482;4.264;2023-05-24T11:51:46;102372.41;;;26.25
49593;BMP280;35499;51.482;4.264;2023-05-24T11:54:11;102375.41;;;25.86
49593;BMP280;35499;51.482;4.264;2023-05-24T11:56:36;102364.03;;;25.69
49593;BMP280;35499;51.482;4.264;2023-05-24T11:59:35;102373.50;;;25.40
49593;BMP280;35499;51.482;4.264;2023-05-24T12:02:00;102363.16;;;25.19
49593;BMP280;35499;51.482;4.264;2023-05-24T12:04:26;102366.97;;;25.47
49593;BMP280;35499;51.482;4.264;2023-05-24T12:06:52;102360.78;;;25.64
49593;BMP280;35499;51.482;4.264;2023-05-24T12:09:17;102359.72;;;25.35
49593;BMP280;35499;51.482;4.264;2023-05-24T12:11:45;102353.50;;;25.01
49593;BMP280;35499;51.482;4.264;2023-05-24T12:14:11;102350.28;;;25.13
49593;BMP280;35499;51.482;4.264;2023-05-24T12:16:36;102347.47;;;25.67
49593;BMP280;35499;51.482;4.264;2023-05-24T12:19:02;102334.72;;;26.08
49593;BMP280;35499;51.482;4.264;2023-05-24T12:21:31;102340.94;;;25.90
49593;BMP280;35499;51.482;4.264;2023-05-24T12:24:03;102333.78;;;25.44
49593;BMP280;35499;51.482;4.264;2023-05-24T12:26:28;102344.25;;;25.11
49593;BMP280;35499;51.482;4.264;2023-05-24T12:28:53;102340.13;;;25.24
49593;BMP280;35499;51.482;4.264;2023-05-24T12:31:19;102332.19;;;25.73
49593;BMP280;35499;51.482;4.264;2023-05-24T12:33:45;102327.31;;;25.99
49593;BMP280;35499;51.482;4.264;2023-05-24T12:36:11;102328.41;;;25.95
49593;BMP280;35499;51.482;4.264;2023-05-24T12:38:36;102325.00;;;25.93
49593;BMP280;35499;51.482;4.264;2023-05-24T12:41:01;102314.50;;;26.08
49593;BMP280;35499;51.482;4.264;2023-05-24T12:43:27;102327.88;;;26.51
49593;BMP280;35499;51.482;4.264;2023-05-24T12:45:53;102327.25;;;26.91
49593;BMP280;35499;51.482;4.264;2023-05-24T12:48:18;102320.28;;;26.90
49593;BMP280;35499;51.482;4.264;2023-05-24T12:50:43;102319.28;;;26.77
49593;BMP280;35499;51.482;4.264;2023-05-24T12:53:09;102313.81;;;26.95
49593;BMP280;35499;51.482;4.264;2023-05-24T12:55:36;102319.78;;;27.14
49593;BMP280;35499;51.482;4.264;2023-05-24T12:58:01;102315.75;;;27.22
49593;BMP280;35499;51.482;4.264;2023-05-24T13:00:30;102314.38;;;27.15
49593;BMP280;35499;51.482;4.264;2023-05-24T13:02:55;102319.94;;;26.96
49593;BMP280;35499;51.482;4.264;2023-05-24T13:05:22;102319.13;;;26.65
49593;BMP280;35499;51.482;4.264;2023-05-24T13:07:48;102307.16;;;26.60
49593;BMP280;35499;51.482;4.264;2023-05-24T13:10:13;102309.22;;;26.99
49593;BMP280;35499;51.482;4.264;2023-05-24T13:12:39;102306.19;;;27.48
49593;BMP280;35499;51.482;4.264;2023-05-24T13:15:05;102299.47;;;27.72
49593;BMP280;35499;51.482;4.264;2023-05-24T13:17:31;102313.19;;;27.49
49593;BMP280;35499;51.482;4.264;2023-05-24T13:19:57;102304.28;;;27.50
49593;BMP280;35499;51.482;4.264;2023-05-24T13:22:23;102301.28;;;27.56
49593;BMP280;35499;51.482;4.264;2023-05-24T13:24:48;102297.56;;;27.31
49593;BMP280;35499;51.482;4.264;2023-05-24T13:27:13;102303.44;;;26.92
49593;BMP280;35499;51.482;4.264;2023-05-24T13:29:38;102296.84;;;26.71
49593;BMP280;35499;51.482;4.264;2023-05-24T13:32:04;102301.97;;;26.43
49593;BMP280;35499;51.482;4.264;2023-05-24T13:34:29;102314.31;;;26.26
49593;BMP280;35499;51.482;4.264;2023-05-24T13:36:55;102301.38;;;25.92
49593;BMP280;35499;51.482;4.264;2023-05-24T13:39:22;102303.75;;;25.31
49593;BMP280;35499;51.482;4.264;2023-05-24T13:41:48;102314.41;;;24.95
49593;BMP280;35499;51.482;4.264;2023-05-24T13:44:14;102315.78;;;24.50
49593;BMP280;35499;51.482;4.264;2023-05-24T13:46:40;102317.25;;;24.01
49593;BMP280;35499;51.482;4.264;2023-05-24T13:49:06;102319.16;;;23.41
49593;BMP280;35499;51.482;4.264;2023-05-24T13:51:31;102323.59;;;22.98
49593;BMP280;35499;51.482;4.264;2023-05-24T13:53:57;102320.44;;;22.70
49593;BMP280;35499;51.482;4.264;2023-05-24T13:56:22;102326.06;;;22.61
49593;BMP280;35499;51.482;4.264;2023-05-24T13:58:48;102317.50;;;22.77
49593;BMP280;35499;51.482;4.264;2023-05-24T14:01:14;102324.59;;;22.96
49593;BMP280;35499;51.482;4.264;2023-05-24T14:03:39;102318.09;;;23.25
49593;BMP280;35499;51.482;4.264;2023-05-24T14:06:05;102318.06;;;23.46
49593;BMP280;35499;51.482;4.264;2023-05-24T14:08:31;102311.53;;;23.54
49593;BMP280;35499;51.482;4.264;2023-05-24T14:10:56;102315.50;;;23.45
49593;BMP280;35499;51.482;4.264;2023-05-24T14:13:22;102307.38;;;23.31
49593;BMP280;35499;51.482;4.264;2023-05-24T14:15:47;102313.72;;;23.26